sensor_id;sensor_type;location;lat;lon;timestamp;P1;durP1;ratioP1;P2;durP2;ratioP2
42700;SDS011;28316;49.504;8.526;2023-07-30T00:02:18;1.42;;;0.85;;
42700;SDS011;28316;49.504;8.526;2023-07-30T00:04:44;4.68;;;0.93;;
42700;SDS011;28316;49.504;8.526;2023-07-30T00:07:11;1.17;;;0.52;;
42700;SDS011;28316;49.504;8.526;2023-07-30T00:09:37;1.30;;;0.68;;
42700;SDS011;28316;49.504;8.526;2023-07-30T00:12:07;1.83;;;1.15;;
42700;SDS011;28316;49.504;8.526;2023-07-30T00:14:34;2.90;;;0.70;;
42700;SDS011;28316;49.504;8.526;2023-07-30T00:17:00;1.73;;;0.80;;
42700;SDS011;28316;49.504;8.526;2023-07-30T00:19:26;1.35;;;0.63;;
42700;SDS011;28316;49.504;8.526;2023-07-30T00:21:52;0.50;;;0.32;;
42700;SDS011;28316;49.504;8.526;2023-07-30T00:24:18;1.08;;;0.55;;
42700;SDS011;28316;49.504;8.526;2023-07-30T00:26:43;2.00;;;0.80;;
42700;SDS011;28316;49.504;8.526;2023-07-30T00:29:09;3.60;;;0.65;;
42700;SDS011;28316;49.504;8.526;2023-07-30T00:31:35;1.45;;;0.70;;
42700;SDS011;28316;49.504;8.526;2023-07-30T00:34:00;1.25;;;0.52;;
42700;SDS011;28316;49.504;8.526;2023-07-30T00:36:26;0.65;;;0.45;;
42700;SDS011;28316;49.504;8.526;2023-07-30T00:38:52;0.95;;;0.47;;
42700;SDS011;28316;49.504;8.526;2023-07-30T00:41:18;1.70;;;0.57;;
42700;SDS011;28316;49.504;8.526;2023-07-30T00:43:44;1.83;;;0.90;;
42700;SDS011;28316;49.504;8.526;2023-07-30T00:46:10;1.85;;;0.60;;
42700;SDS011;28316;49.504;8.526;2023-07-30T00:48:37;1.20;;;0.60;;
42700;SDS011;28316;49.504;8.526;2023-07-30T00:51:03;1.50;;;0.70;;
42700;SDS011;28316;49.504;8.526;2023-07-30T00:53:29;0.95;;;0.40;;
42700;SDS011;28316;49.504;8.526;2023-07-30T00:55:55;3.72;;;0.50;;
42700;SDS011;28316;49.504;8.526;2023-07-30T00:58:21;0.88;;;0.60;;
42700;SDS011;28316;49.504;8.526;2023-07-30T01:00:48;4.57;;;0.75;;
42700;SDS011;28316;49.504;8.526;2023-07-30T01:03:17;5.28;;;0.85;;
42700;SDS011;28316;49.504;8.526;2023-07-30T01:05:43;1.25;;;0.70;;
42700;SDS011;28316;49.504;8.526;2023-07-30T01:08:10;0.57;;;0.32;;
42700;SDS011;28316;49.504;8.526;2023-07-30T01:10:35;1.23;;;0.70;;
42700;SDS011;28316;49.504;8.526;2023-07-30T01:13:05;1.75;;;0.75;;
42700;SDS011;28316;49.504;8.526;2023-07-30T01:15:34;1.63;;;0.80;;
42700;SDS011;28316;49.504;8.526;2023-07-30T01:18:01;1.10;;;0.70;;
42700;SDS011;28316;49.504;8.526;2023-07-30T01:20:30;4.65;;;0.93;;
42700;SDS011;28316;49.504;8.526;2023-07-30T01:22:58;1.05;;;0.47;;
42700;SDS011;28316;49.504;8.526;2023-07-30T01:25:24;1.00;;;0.43;;
42700;SDS011;28316;49.504;8.526;2023-07-30T01:27:59;1.48;;;0.45;;
42700;SDS011;28316;49.504;8.526;2023-07-30T01:30:37;1.83;;;0.75;;
42700;SDS011;28316;49.504;8.526;2023-07-30T01:33:07;2.75;;;0.60;;
42700;SDS011;28316;49.504;8.526;2023-07-30T01:35:35;5.93;;;0.80;;
42700;SDS011;28316;49.504;8.526;2023-07-30T01:38:03;2.85;;;0.98;;
42700;SDS011;28316;49.504;8.526;2023-07-30T01:40:31;1.85;;;0.70;;
42700;SDS011;28316;49.504;8.526;2023-07-30T01:42:57;1.40;;;0.75;;
42700;SDS011;28316;49.504;8.526;2023-07-30T01:45:23;1.95;;;0.82;;
42700;SDS011;28316;49.504;8.526;2023-07-30T01:47:49;1.08;;;0.70;;
42700;SDS011;28316;49.504;8.526;2023-07-30T01:50:15;1.85;;;0.65;;
42700;SDS011;28316;49.504;8.526;2023-07-30T01:52:40;2.15;;;0.85;;
42700;SDS011;28316;49.504;8.526;2023-07-30T01:55:06;1.65;;;0.88;;
42700;SDS011;28316;49.504;8.526;2023-07-30T01:57:32;1.90;;;0.95;;
42700;SDS011;28316;49.504;8.526;2023-07-30T01:59:58;1.75;;;0.82;;
42700;SDS011;28316;49.504;8.526;2023-07-30T02:02:24;2.53;;;0.85;;
42700;SDS011;28316;49.504;8.526;2023-07-30T02:04:50;1.55;;;0.77;;
42700;SDS011;28316;49.504;8.526;2023-07-30T02:07:15;7.95;;;0.90;;
42700;SDS011;28316;49.504;8.526;2023-07-30T02:09:42;2.20;;;1.00;;
42700;SDS011;28316;49.504;8.526;2023-07-30T02:12:08;3.67;;;1.15;;
42700;SDS011;28316;49.504;8.526;2023-07-30T02:14:34;3.55;;;0.63;;
42700;SDS011;28316;49.504;8.526;2023-07-30T02:17:00;1.33;;;0.60;;
42700;SDS011;28316;49.504;8.526;2023-07-30T02:19:26;1.25;;;0.70;;
42700;SDS011;28316;49.504;8.526;2023-07-30T02:21:52;1.88;;;1.13;;
42700;SDS011;28316;49.504;8.526;2023-07-30T02:24:17;1.60;;;0.90;;
42700;SDS011;28316;49.504;8.526;2023-07-30T02:26:43;1.58;;;0.90;;
42700;SDS011;28316;49.504;8.526;2023-07-30T02:29:09;1.75;;;0.70;;
42700;SDS011;28316;49.504;8.526;2023-07-30T02:31:34;1.75;;;1.05;;
42700;SDS011;28316;49.504;8.526;2023-07-30T02:34:00;1.80;;;0.80;;
42700;SDS011;28316;49.504;8.526;2023-07-30T02:36:26;1.00;;;0.70;;
42700;SDS011;28316;49.504;8.526;2023-07-30T02:38:52;3.42;;;1.30;;
42700;SDS011;28316;49.504;8.526;2023-07-30T02:41:17;3.22;;;0.70;;
42700;SDS011;28316;49.504;8.526;2023-07-30T02:43:43;2.15;;;1.05;;
42700;SDS011;28316;49.504;8.526;2023-07-30T02:46:09;5.57;;;1.58;;
42700;SDS011;28316;49.504;8.526;2023-07-30T02:48:34;3.17;;;1.30;;
42700;SDS011;28316;49.504;8.526;2023-07-30T02:51:00;3.70;;;1.50;;
42700;SDS011;28316;49.504;8.526;2023-07-30T02:53:26;4.88;;;1.38;;
42700;SDS011;28316;49.504;8.526;2023-07-30T02:55:51;1.88;;;1.00;;
42700;SDS011;28316;49.504;8.526;2023-07-30T02:58:17;2.63;;;1.38;;
42700;SDS011;28316;49.504;8.526;2023-07-30T03:00:43;3.58;;;1.40;;
42700;SDS011;28316;49.504;8.526;2023-07-30T03:03:08;4.07;;;1.65;;
42700;SDS011;28316;49.504;8.526;2023-07-30T03:05:34;2.58;;;1.40;;
42700;SDS011;28316;49.504;8.526;2023-07-30T03:08:00;2.08;;;1.10;;
42700;SDS011;28316;49.504;8.526;2023-07-30T03:10:26;3.70;;;1.42;;
42700;SDS011;28316;49.504;8.526;2023-07-30T03:12:52;2.58;;;1.50;;
42700;SDS011;28316;49.504;8.526;2023-07-30T03:15:18;2.95;;;1.63;;
42700;SDS011;28316;49.504;8.526;2023-07-30T03:17:43;2.17;;;1.40;;
42700;SDS011;28316;49.504;8.526;2023-07-30T03:20:09;2.58;;;1.38;;
42700;SDS011;28316;49.504;8.526;2023-07-30T03:22:35;3.33;;;1.63;;
42700;SDS011;28316;49.504;8.526;2023-07-30T03:25:01;3.60;;;1.88;;
42700;SDS011;28316;49.504;8.526;2023-07-30T03:27:27;2.30;;;1.30;;
42700;SDS011;28316;49.504;8.526;2023-07-30T03:29:52;3.58;;;1.65;;
42700;SDS011;28316;49.504;8.526;2023-07-30T03:32:18;3.40;;;1.52;;
42700;SDS011;28316;49.504;8.526;2023-07-30T03:34:44;2.65;;;1.40;;
42700;SDS011;28316;49.504;8.526;2023-07-30T03:37:09;4.40;;;2.00;;
42700;SDS011;28316;49.504;8.526;2023-07-30T03:39:35;4.95;;;1.90;;
42700;SDS011;28316;49.504;8.526;2023-07-30T03:42:01;2.58;;;1.70;;
42700;SDS011;28316;49.504;8.526;2023-07-30T03:44:27;6.13;;;2.22;;
42700;SDS011;28316;49.504;8.526;2023-07-30T03:46:53;3.33;;;1.88;;
42700;SDS011;28316;49.504;8.526;2023-07-30T03:49:18;5.40;;;1.80;;
42700;SDS011;28316;49.504;8.526;2023-07-30T03:51:44;3.55;;;1.88;;
42700;SDS011;28316;49.504;8.526;2023-07-30T03:54:10;3.47;;;1.92;;
42700;SDS011;28316;49.504;8.526;2023-07-30T03:56:35;13.20;;;2.40;;
42700;SDS011;28316;49.504;8.526;2023-07-30T03:59:01;9.85;;;2.47;;
42700;SDS011;28316;49.504;8.526;2023-07-30T04:01:27;4.18;;;2.05;;
42700;SDS011;28316;49.504;8.526;2023-07-30T04:03:54;3.58;;;1.95;;
42700;SDS011;28316;49.504;8.526;2023-07-30T04:06:19;4.47;;;2.22;;
42700;SDS011;28316;49.504;8.526;2023-07-30T04:08:45;3.83;;;2.05;;
42700;SDS011;28316;49.504;8.526;2023-07-30T04:11:11;4.85;;;1.95;;
42700;SDS011;28316;49.504;8.526;2023-07-30T04:13:37;3.65;;;2.05;;
42700;SDS011;28316;49.504;8.526;2023-07-30T04:16:02;5.03;;;1.85;;
42700;SDS011;28316;49.504;8.526;2023-07-30T04:18:28;4.47;;;2.10;;
42700;SDS011;28316;49.504;8.526;2023-07-30T04:20:54;8.27;;;2.92;;
42700;SDS011;28316;49.504;8.526;2023-07-30T04:23:23;4.85;;;2.13;;
42700;SDS011;28316;49.504;8.526;2023-07-30T04:25:49;4.30;;;2.13;;
42700;SDS011;28316;49.504;8.526;2023-07-30T04:28:15;3.97;;;2.10;;
42700;SDS011;28316;49.504;8.526;2023-07-30T04:30:41;4.32;;;2.22;;
42700;SDS011;28316;49.504;8.526;2023-07-30T04:33:07;3.85;;;1.90;;
42700;SDS011;28316;49.504;8.526;2023-07-30T04:35:33;4.40;;;2.53;;
42700;SDS011;28316;49.504;8.526;2023-07-30T04:37:58;3.60;;;2.05;;
42700;SDS011;28316;49.504;8.526;2023-07-30T04:40:24;3.00;;;1.50;;
42700;SDS011;28316;49.504;8.526;2023-07-30T04:42:50;6.32;;;2.05;;
42700;SDS011;28316;49.504;8.526;2023-07-30T04:45:16;5.45;;;2.20;;
42700;SDS011;28316;49.504;8.526;2023-07-30T04:47:41;4.55;;;2.15;;
42700;SDS011;28316;49.504;8.526;2023-07-30T04:50:07;4.70;;;2.50;;
42700;SDS011;28316;49.504;8.526;2023-07-30T04:52:33;2.35;;;1.50;;
42700;SDS011;28316;49.504;8.526;2023-07-30T04:54:59;4.50;;;2.28;;
42700;SDS011;28316;49.504;8.526;2023-07-30T04:57:24;2.97;;;1.85;;
42700;SDS011;28316;49.504;8.526;2023-07-30T04:59:51;4.45;;;1.98;;
42700;SDS011;28316;49.504;8.526;2023-07-30T05:02:16;4.72;;;2.28;;
42700;SDS011;28316;49.504;8.526;2023-07-30T05:04:42;3.15;;;1.70;;
42700;SDS011;28316;49.504;8.526;2023-07-30T05:07:08;3.92;;;1.83;;
42700;SDS011;28316;49.504;8.526;2023-07-30T05:09:34;7.20;;;2.88;;
42700;SDS011;28316;49.504;8.526;2023-07-30T05:11:59;3.65;;;1.77;;
42700;SDS011;28316;49.504;8.526;2023-07-30T05:14:25;4.57;;;1.83;;
42700;SDS011;28316;49.504;8.526;2023-07-30T05:16:51;3.67;;;1.92;;
42700;SDS011;28316;49.504;8.526;2023-07-30T05:19:16;4.15;;;2.60;;
42700;SDS011;28316;49.504;8.526;2023-07-30T05:21:42;3.85;;;1.95;;
42700;SDS011;28316;49.504;8.526;2023-07-30T05:24:08;4.13;;;1.80;;
42700;SDS011;28316;49.504;8.526;2023-07-30T05:26:34;4.25;;;2.30;;
42700;SDS011;28316;49.504;8.526;2023-07-30T05:29:00;3.50;;;1.95;;
42700;SDS011;28316;49.504;8.526;2023-07-30T05:31:25;4.07;;;1.85;;
42700;SDS011;28316;49.504;8.526;2023-07-30T05:33:51;5.13;;;2.05;;
42700;SDS011;28316;49.504;8.526;2023-07-30T05:36:17;4.32;;;1.83;;
42700;SDS011;28316;49.504;8.526;2023-07-30T05:38:42;5.90;;;2.15;;
42700;SDS011;28316;49.504;8.526;2023-07-30T05:41:08;4.72;;;2.13;;
42700;SDS011;28316;49.504;8.526;2023-07-30T05:43:34;5.80;;;2.53;;
42700;SDS011;28316;49.504;8.526;2023-07-30T05:46:00;5.88;;;1.90;;
42700;SDS011;28316;49.504;8.526;2023-07-30T05:48:25;4.45;;;2.10;;
42700;SDS011;28316;49.504;8.526;2023-07-30T05:50:51;5.60;;;1.88;;
42700;SDS011;28316;49.504;8.526;2023-07-30T05:53:17;4.47;;;1.90;;
42700;SDS011;28316;49.504;8.526;2023-07-30T05:55:42;3.90;;;1.80;;
42700;SDS011;28316;49.504;8.526;2023-07-30T05:58:08;2.78;;;1.70;;
42700;SDS011;28316;49.504;8.526;2023-07-30T06:00:34;3.55;;;1.58;;
42700;SDS011;28316;49.504;8.526;2023-07-30T06:03:01;7.45;;;2.15;;
42700;SDS011;28316;49.504;8.526;2023-07-30T06:05:26;4.72;;;2.28;;
42700;SDS011;28316;49.504;8.526;2023-07-30T06:07:52;3.42;;;1.70;;
42700;SDS011;28316;49.504;8.526;2023-07-30T06:10:18;4.18;;;1.88;;
42700;SDS011;28316;49.504;8.526;2023-07-30T06:12:44;4.47;;;2.20;;
42700;SDS011;28316;49.504;8.526;2023-07-30T06:15:09;3.30;;;1.92;;
42700;SDS011;28316;49.504;8.526;2023-07-30T06:17:35;2.90;;;1.50;;
42700;SDS011;28316;49.504;8.526;2023-07-30T06:20:01;3.28;;;1.20;;
42700;SDS011;28316;49.504;8.526;2023-07-30T06:22:28;2.35;;;1.30;;
42700;SDS011;28316;49.504;8.526;2023-07-30T06:24:53;8.93;;;1.67;;
42700;SDS011;28316;49.504;8.526;2023-07-30T06:27:19;1.60;;;1.10;;
42700;SDS011;28316;49.504;8.526;2023-07-30T06:29:45;2.65;;;1.40;;
42700;SDS011;28316;49.504;8.526;2023-07-30T06:32:10;2.20;;;1.20;;
42700;SDS011;28316;49.504;8.526;2023-07-30T06:34:36;3.92;;;1.52;;
42700;SDS011;28316;49.504;8.526;2023-07-30T06:37:02;2.67;;;1.40;;
42700;SDS011;28316;49.504;8.526;2023-07-30T06:39:28;6.68;;;1.20;;
42700;SDS011;28316;49.504;8.526;2023-07-30T06:41:53;3.00;;;0.98;;
42700;SDS011;28316;49.504;8.526;2023-07-30T06:44:19;6.32;;;1.73;;
42700;SDS011;28316;49.504;8.526;2023-07-30T06:46:45;4.18;;;1.48;;
42700;SDS011;28316;49.504;8.526;2023-07-30T06:49:11;4.90;;;1.33;;
42700;SDS011;28316;49.504;8.526;2023-07-30T06:51:36;2.83;;;1.60;;
42700;SDS011;28316;49.504;8.526;2023-07-30T06:54:02;3.33;;;1.15;;
42700;SDS011;28316;49.504;8.526;2023-07-30T06:56:28;1.85;;;1.10;;
42700;SDS011;28316;49.504;8.526;2023-07-30T06:58:54;2.38;;;1.30;;
42700;SDS011;28316;49.504;8.526;2023-07-30T07:01:19;2.90;;;1.50;;
42700;SDS011;28316;49.504;8.526;2023-07-30T07:03:45;2.85;;;1.20;;
42700;SDS011;28316;49.504;8.526;2023-07-30T07:06:10;2.60;;;1.45;;
42700;SDS011;28316;49.504;8.526;2023-07-30T07:08:36;1.42;;;1.20;;
42700;SDS011;28316;49.504;8.526;2023-07-30T07:11:02;1.40;;;0.98;;
42700;SDS011;28316;49.504;8.526;2023-07-30T07:13:28;2.00;;;1.00;;
42700;SDS011;28316;49.504;8.526;2023-07-30T07:15:53;2.28;;;1.00;;
42700;SDS011;28316;49.504;8.526;2023-07-30T07:18:19;1.58;;;0.98;;
42700;SDS011;28316;49.504;8.526;2023-07-30T07:20:45;1.55;;;0.93;;
42700;SDS011;28316;49.504;8.526;2023-07-30T07:23:10;3.47;;;1.30;;
42700;SDS011;28316;49.504;8.526;2023-07-30T07:25:36;5.63;;;1.10;;
42700;SDS011;28316;49.504;8.526;2023-07-30T07:28:02;4.07;;;1.27;;
42700;SDS011;28316;49.504;8.526;2023-07-30T07:30:28;1.95;;;1.10;;
42700;SDS011;28316;49.504;8.526;2023-07-30T07:32:54;5.10;;;1.33;;
42700;SDS011;28316;49.504;8.526;2023-07-30T07:35:20;2.03;;;1.13;;
42700;SDS011;28316;49.504;8.526;2023-07-30T07:37:47;2.97;;;1.73;;
42700;SDS011;28316;49.504;8.526;2023-07-30T07:40:12;2.65;;;1.55;;
42700;SDS011;28316;49.504;8.526;2023-07-30T07:42:38;4.05;;;1.65;;
42700;SDS011;28316;49.504;8.526;2023-07-30T07:45:05;2.22;;;1.25;;
42700;SDS011;28316;49.504;8.526;2023-07-30T07:47:32;2.45;;;1.33;;
42700;SDS011;28316;49.504;8.526;2023-07-30T07:49:57;3.50;;;1.90;;
42700;SDS011;28316;49.504;8.526;2023-07-30T07:52:23;2.20;;;1.25;;
42700;SDS011;28316;49.504;8.526;2023-07-30T07:54:49;2.85;;;1.38;;
42700;SDS011;28316;49.504;8.526;2023-07-30T07:57:15;3.65;;;2.00;;
42700;SDS011;28316;49.504;8.526;2023-07-30T07:59:40;4.38;;;1.58;;
42700;SDS011;28316;49.504;8.526;2023-07-30T08:02:09;4.40;;;1.55;;
42700;SDS011;28316;49.504;8.526;2023-07-30T08:04:37;3.15;;;1.73;;
42700;SDS011;28316;49.504;8.526;2023-07-30T08:07:02;5.35;;;1.10;;
42700;SDS011;28316;49.504;8.526;2023-07-30T08:09:29;1.85;;;1.30;;
42700;SDS011;28316;49.504;8.526;2023-07-30T08:11:55;2.70;;;1.58;;
42700;SDS011;28316;49.504;8.526;2023-07-30T08:14:21;2.15;;;1.27;;
42700;SDS011;28316;49.504;8.526;2023-07-30T08:16:47;2.65;;;1.40;;
42700;SDS011;28316;49.504;8.526;2023-07-30T08:19:12;2.20;;;1.23;;
42700;SDS011;28316;49.504;8.526;2023-07-30T08:21:38;2.25;;;1.10;;
42700;SDS011;28316;49.504;8.526;2023-07-30T08:24:04;2.97;;;1.40;;
42700;SDS011;28316;49.504;8.526;2023-07-30T08:26:30;4.60;;;1.50;;
42700;SDS011;28316;49.504;8.526;2023-07-30T08:28:57;3.65;;;1.40;;
42700;SDS011;28316;49.504;8.526;2023-07-30T08:31:23;3.20;;;1.27;;
42700;SDS011;28316;49.504;8.526;2023-07-30T08:33:49;2.33;;;1.25;;
42700;SDS011;28316;49.504;8.526;2023-07-30T08:36:14;2.35;;;0.93;;
42700;SDS011;28316;49.504;8.526;2023-07-30T08:38:40;1.40;;;0.80;;
42700;SDS011;28316;49.504;8.526;2023-07-30T08:41:06;5.43;;;1.00;;
42700;SDS011;28316;49.504;8.526;2023-07-30T08:43:33;2.08;;;1.27;;
42700;SDS011;28316;49.504;8.526;2023-07-30T08:45:59;0.85;;;0.47;;
42700;SDS011;28316;49.504;8.526;2023-07-30T08:48:26;1.27;;;0.68;;
42700;SDS011;28316;49.504;8.526;2023-07-30T08:50:54;1.40;;;0.77;;
42700;SDS011;28316;49.504;8.526;2023-07-30T08:53:25;1.45;;;0.68;;
42700;SDS011;28316;49.504;8.526;2023-07-30T08:55:52;1.63;;;0.60;;
42700;SDS011;28316;49.504;8.526;2023-07-30T08:58:21;2.40;;;0.77;;
42700;SDS011;28316;49.504;8.526;2023-07-30T09:00:49;2.25;;;1.30;;
42700;SDS011;28316;49.504;8.526;2023-07-30T09:03:16;1.40;;;0.82;;
42700;SDS011;28316;49.504;8.526;2023-07-30T09:05:43;1.67;;;0.57;;
42700;SDS011;28316;49.504;8.526;2023-07-30T09:08:09;1.10;;;0.50;;
42700;SDS011;28316;49.504;8.526;2023-07-30T09:10:36;4.57;;;0.93;;
42700;SDS011;28316;49.504;8.526;2023-07-30T09:13:02;2.30;;;1.00;;
42700;SDS011;28316;49.504;8.526;2023-07-30T09:15:29;1.33;;;0.63;;
42700;SDS011;28316;49.504;8.526;2023-07-30T09:18:05;2.33;;;1.30;;
42700;SDS011;28316;49.504;8.526;2023-07-30T09:20:36;0.95;;;0.60;;
42700;SDS011;28316;49.504;8.526;2023-07-30T09:23:04;1.60;;;0.90;;
42700;SDS011;28316;49.504;8.526;2023-07-30T09:25:35;1.33;;;0.82;;
42700;SDS011;28316;49.504;8.526;2023-07-30T09:28:02;1.73;;;0.85;;
42700;SDS011;28316;49.504;8.526;2023-07-30T09:30:29;2.15;;;1.08;;
42700;SDS011;28316;49.504;8.526;2023-07-30T09:32:56;2.35;;;0.70;;
42700;SDS011;28316;49.504;8.526;2023-07-30T09:35:23;2.63;;;1.00;;
42700;SDS011;28316;49.504;8.526;2023-07-30T09:37:57;0.93;;;0.60;;
42700;SDS011;28316;49.504;8.526;2023-07-30T09:40:31;1.55;;;0.75;;
42700;SDS011;28316;49.504;8.526;2023-07-30T09:42:59;2.88;;;0.70;;
42700;SDS011;28316;49.504;8.526;2023-07-30T09:45:25;3.25;;;0.80;;
42700;SDS011;28316;49.504;8.526;2023-07-30T09:47:51;1.40;;;0.90;;
42700;SDS011;28316;49.504;8.526;2023-07-30T09:50:18;1.13;;;0.60;;
42700;SDS011;28316;49.504;8.526;2023-07-30T09:52:45;2.65;;;1.05;;
42700;SDS011;28316;49.504;8.526;2023-07-30T09:55:11;3.00;;;0.88;;
42700;SDS011;28316;49.504;8.526;2023-07-30T09:57:37;1.77;;;0.95;;
42700;SDS011;28316;49.504;8.526;2023-07-30T10:00:04;1.05;;;0.70;;
42700;SDS011;28316;49.504;8.526;2023-07-30T10:02:36;5.32;;;1.23;;
42700;SDS011;28316;49.504;8.526;2023-07-30T10:05:10;1.25;;;0.60;;
42700;SDS011;28316;49.504;8.526;2023-07-30T10:07:49;1.63;;;0.52;;
42700;SDS011;28316;49.504;8.526;2023-07-30T10:10:27;8.88;;;1.20;;
42700;SDS011;28316;49.504;8.526;2023-07-30T10:12:59;1.33;;;0.63;;
42700;SDS011;28316;49.504;8.526;2023-07-30T10:15:33;1.73;;;0.65;;
42700;SDS011;28316;49.504;8.526;2023-07-30T10:18:02;1.35;;;0.70;;
42700;SDS011;28316;49.504;8.526;2023-07-30T10:20:28;2.22;;;0.85;;
42700;SDS011;28316;49.504;8.526;2023-07-30T10:22:56;3.10;;;1.35;;
42700;SDS011;28316;49.504;8.526;2023-07-30T10:25:28;2.17;;;0.95;;
42700;SDS011;28316;49.504;8.526;2023-07-30T10:28:07;0.80;;;0.32;;
42700;SDS011;28316;49.504;8.526;2023-07-30T10:30:33;1.25;;;0.65;;
42700;SDS011;28316;49.504;8.526;2023-07-30T10:33:03;0.95;;;0.47;;
42700;SDS011;28316;49.504;8.526;2023-07-30T10:35:35;0.55;;;0.40;;
42700;SDS011;28316;49.504;8.526;2023-07-30T10:38:22;1.08;;;0.55;;
42700;SDS011;28316;49.504;8.526;2023-07-30T10:41:06;0.30;;;0.30;;
42700;SDS011;28316;49.504;8.526;2023-07-30T10:43:36;0.60;;;0.35;;
42700;SDS011;28316;49.504;8.526;2023-07-30T10:46:05;1.25;;;0.70;;
42700;SDS011;28316;49.504;8.526;2023-07-30T10:48:33;1.08;;;0.35;;
42700;SDS011;28316;49.504;8.526;2023-07-30T10:51:08;0.63;;;0.38;;
42700;SDS011;28316;49.504;8.526;2023-07-30T10:53:37;3.45;;;0.75;;
42700;SDS011;28316;49.504;8.526;2023-07-30T10:56:04;5.57;;;0.45;;
42700;SDS011;28316;49.504;8.526;2023-07-30T10:58:32;0.60;;;0.30;;
42700;SDS011;28316;49.504;8.526;2023-07-30T11:01:04;0.60;;;0.22;;
42700;SDS011;28316;49.504;8.526;2023-07-30T11:03:32;2.97;;;0.43;;
42700;SDS011;28316;49.504;8.526;2023-07-30T11:05:59;1.85;;;0.28;;
42700;SDS011;28316;49.504;8.526;2023-07-30T11:08:38;0.63;;;0.38;;
42700;SDS011;28316;49.504;8.526;2023-07-30T11:11:06;1.05;;;0.45;;
42700;SDS011;28316;49.504;8.526;2023-07-30T11:13:38;1.38;;;0.50;;
42700;SDS011;28316;49.504;8.526;2023-07-30T11:16:09;0.85;;;0.40;;
42700;SDS011;28316;49.504;8.526;2023-07-30T11:18:35;4.07;;;1.15;;
42700;SDS011;28316;49.504;8.526;2023-07-30T11:21:06;2.50;;;0.85;;
42700;SDS011;28316;49.504;8.526;2023-07-30T11:23:41;1.13;;;0.30;;
42700;SDS011;28316;49.504;8.526;2023-07-30T11:26:12;2.22;;;0.73;;
42700;SDS011;28316;49.504;8.526;2023-07-30T11:28:41;1.15;;;0.45;;
42700;SDS011;28316;49.504;8.526;2023-07-30T11:33:35;3.05;;;0.52;;
42700;SDS011;28316;49.504;8.526;2023-07-30T11:36:03;4.05;;;0.50;;
42700;SDS011;28316;49.504;8.526;2023-07-30T11:38:31;1.95;;;0.70;;
42700;SDS011;28316;49.504;8.526;2023-07-30T11:40:57;0.93;;;0.38;;
42700;SDS011;28316;49.504;8.526;2023-07-30T11:43:24;1.05;;;0.50;;
42700;SDS011;28316;49.504;8.526;2023-07-30T11:46:05;1.33;;;0.40;;
42700;SDS011;28316;49.504;8.526;2023-07-30T11:48:33;1.15;;;0.50;;
42700;SDS011;28316;49.504;8.526;2023-07-30T11:51:00;0.43;;;0.32;;
42700;SDS011;28316;49.504;8.526;2023-07-30T11:56:16;2.20;;;0.55;;
42700;SDS011;28316;49.504;8.526;2023-07-30T11:58:47;2.75;;;0.57;;
42700;SDS011;28316;49.504;8.526;2023-07-30T12:01:17;1.02;;;0.60;;
42700;SDS011;28316;49.504;8.526;2023-07-30T12:03:43;1.15;;;0.55;;
42700;SDS011;28316;49.504;8.526;2023-07-30T12:06:10;1.58;;;0.60;;
42700;SDS011;28316;49.504;8.526;2023-07-30T12:08:37;2.05;;;0.70;;
42700;SDS011;28316;49.504;8.526;2023-07-30T12:11:03;2.25;;;1.17;;
42700;SDS011;28316;49.504;8.526;2023-07-30T12:13:31;1.70;;;0.57;;
42700;SDS011;28316;49.504;8.526;2023-07-30T12:15:58;1.15;;;0.50;;
42700;SDS011;28316;49.504;8.526;2023-07-30T12:18:25;1.33;;;0.47;;
42700;SDS011;28316;49.504;8.526;2023-07-30T12:20:53;0.43;;;0.38;;
42700;SDS011;28316;49.504;8.526;2023-07-30T12:23:19;2.55;;;0.90;;
42700;SDS011;28316;49.504;8.526;2023-07-30T12:25:45;1.88;;;0.77;;
42700;SDS011;28316;49.504;8.526;2023-07-30T12:28:12;5.13;;;0.88;;
42700;SDS011;28316;49.504;8.526;2023-07-30T12:30:38;1.48;;;1.35;;
42700;SDS011;28316;49.504;8.526;2023-07-30T12:33:05;4.13;;;0.85;;
42700;SDS011;28316;49.504;8.526;2023-07-30T12:35:31;2.28;;;0.80;;
42700;SDS011;28316;49.504;8.526;2023-07-30T12:37:58;2.30;;;0.57;;
42700;SDS011;28316;49.504;8.526;2023-07-30T12:40:25;1.63;;;0.55;;
42700;SDS011;28316;49.504;8.526;2023-07-30T12:42:54;2.10;;;0.50;;
42700;SDS011;28316;49.504;8.526;2023-07-30T12:45:20;1.70;;;0.65;;
42700;SDS011;28316;49.504;8.526;2023-07-30T12:47:46;2.22;;;0.75;;
42700;SDS011;28316;49.504;8.526;2023-07-30T12:50:12;0.70;;;0.35;;
42700;SDS011;28316;49.504;8.526;2023-07-30T12:52:38;2.20;;;0.82;;
42700;SDS011;28316;49.504;8.526;2023-07-30T12:55:04;4.53;;;0.90;;
42700;SDS011;28316;49.504;8.526;2023-07-30T12:57:31;1.30;;;0.65;;
42700;SDS011;28316;49.504;8.526;2023-07-30T12:59:57;0.82;;;0.60;;
42700;SDS011;28316;49.504;8.526;2023-07-30T13:02:22;4.20;;;1.27;;
42700;SDS011;28316;49.504;8.526;2023-07-30T13:04:48;2.35;;;0.65;;
42700;SDS011;28316;49.504;8.526;2023-07-30T13:07:14;0.65;;;0.40;;
42700;SDS011;28316;49.504;8.526;2023-07-30T13:09:40;1.25;;;0.50;;
42700;SDS011;28316;49.504;8.526;2023-07-30T13:12:05;1.85;;;0.63;;
42700;SDS011;28316;49.504;8.526;2023-07-30T13:14:31;0.52;;;0.35;;
42700;SDS011;28316;49.504;8.526;2023-07-30T13:16:57;0.85;;;0.50;;
42700;SDS011;28316;49.504;8.526;2023-07-30T13:19:23;1.23;;;0.75;;
42700;SDS011;28316;49.504;8.526;2023-07-30T13:21:49;2.00;;;0.93;;
42700;SDS011;28316;49.504;8.526;2023-07-30T13:24:14;2.03;;;0.75;;
42700;SDS011;28316;49.504;8.526;2023-07-30T13:26:40;2.47;;;0.70;;
42700;SDS011;28316;49.504;8.526;2023-07-30T13:29:06;1.45;;;0.30;;
42700;SDS011;28316;49.504;8.526;2023-07-30T13:31:31;3.00;;;0.73;;
42700;SDS011;28316;49.504;8.526;2023-07-30T13:33:57;0.82;;;0.47;;
42700;SDS011;28316;49.504;8.526;2023-07-30T13:36:23;1.27;;;0.45;;
42700;SDS011;28316;49.504;8.526;2023-07-30T13:38:48;0.52;;;0.28;;
42700;SDS011;28316;49.504;8.526;2023-07-30T13:41:14;3.58;;;0.88;;
42700;SDS011;28316;49.504;8.526;2023-07-30T13:43:40;1.48;;;0.38;;
42700;SDS011;28316;49.504;8.526;2023-07-30T13:46:06;2.60;;;0.50;;
42700;SDS011;28316;49.504;8.526;2023-07-30T13:48:32;2.22;;;1.20;;
42700;SDS011;28316;49.504;8.526;2023-07-30T13:50:57;1.27;;;0.70;;
42700;SDS011;28316;49.504;8.526;2023-07-30T13:53:23;0.60;;;0.40;;
42700;SDS011;28316;49.504;8.526;2023-07-30T13:55:49;3.50;;;0.50;;
42700;SDS011;28316;49.504;8.526;2023-07-30T13:58:15;3.60;;;0.57;;
42700;SDS011;28316;49.504;8.526;2023-07-30T14:00:40;4.22;;;0.50;;
42700;SDS011;28316;49.504;8.526;2023-07-30T14:03:09;1.90;;;0.60;;
42700;SDS011;28316;49.504;8.526;2023-07-30T14:05:36;2.47;;;0.98;;
42700;SDS011;28316;49.504;8.526;2023-07-30T14:08:03;0.77;;;0.50;;
42700;SDS011;28316;49.504;8.526;2023-07-30T14:10:29;0.75;;;0.60;;
42700;SDS011;28316;49.504;8.526;2023-07-30T14:12:55;4.22;;;0.60;;
42700;SDS011;28316;49.504;8.526;2023-07-30T14:15:20;1.02;;;0.47;;
42700;SDS011;28316;49.504;8.526;2023-07-30T14:17:46;1.75;;;0.50;;
42700;SDS011;28316;49.504;8.526;2023-07-30T14:20:12;1.02;;;0.52;;
42700;SDS011;28316;49.504;8.526;2023-07-30T14:22:37;1.58;;;0.40;;
42700;SDS011;28316;49.504;8.526;2023-07-30T14:25:03;3.03;;;0.88;;
42700;SDS011;28316;49.504;8.526;2023-07-30T14:27:29;0.90;;;0.50;;
42700;SDS011;28316;49.504;8.526;2023-07-30T14:29:55;4.28;;;0.93;;
42700;SDS011;28316;49.504;8.526;2023-07-30T14:32:22;2.65;;;0.50;;
42700;SDS011;28316;49.504;8.526;2023-07-30T14:34:48;0.82;;;0.30;;
42700;SDS011;28316;49.504;8.526;2023-07-30T14:37:14;2.97;;;0.38;;
42700;SDS011;28316;49.504;8.526;2023-07-30T14:39:40;1.33;;;0.50;;
42700;SDS011;28316;49.504;8.526;2023-07-30T14:42:06;1.55;;;0.50;;
42700;SDS011;28316;49.504;8.526;2023-07-30T14:44:33;1.02;;;0.75;;
42700;SDS011;28316;49.504;8.526;2023-07-30T14:46:59;2.45;;;0.60;;
42700;SDS011;28316;49.504;8.526;2023-07-30T14:49:25;2.10;;;0.50;;
42700;SDS011;28316;49.504;8.526;2023-07-30T14:51:52;3.95;;;1.08;;